Terminal Aerodrome Forecast
Issued by NWS

Home | Current Version | Previous Version | Text Only | Print | Product List | Glossary On
Versions: 1 2 3 4 5 6 7 8 9 10 11 12 13 14 15 16 17 18 19 20
000
FTUS43 KGRB 242344
TAFMTW
TAF
KMTW 242344Z 2500/2524 16008KT P6SM SKC
     FM250500 19004KT P6SM SKC
      TEMPO 2505/2509 4SM BR
     FM250900 19004KT 5SM BR SKC
      TEMPO 2509/2513 1SM BR
     FM251400 18007KT P6SM SCT250
     FM251700 16009KT P6SM FEW050 SCT250=

USA.gov is the U.S. government's official web portal to all federal, state and local government web resources and services.